Time,TemperatureF,DewpointF,PressureIn,WindDirection,WindDirectionDegrees,WindSpeedMPH,WindSpeedGustMPH,Humidity,HourlyPrecipIn,Conditions,Clouds,dailyrainin,SolarRadiationWatts/m^2,SoftwareType,DateUTC
2013-01-23 00:04:00,14.2,-1.0,30.23,WNW,296,6.0,11.0,50,0.00,,,0.00,0,weatherlink.com 1.10,2013-01-23 05:04:00,
2013-01-23 00:18:00,14.1,-2.0,30.23,NW,304,8.0,16.0,48,0.00,,,0.00,0,weatherlink.com 1.10,2013-01-23 05:18:00,
2013-01-23 00:34:00,13.9,-3.0,30.22,NW,310,4.0,11.0,47,0.00,,,0.00,0,weatherlink.com 1.10,2013-01-23 05:34:00,
2013-01-23 00:49:00,13.6,-3.0,30.23,West,277,0.0,9.0,48,0.00,,,0.00,0,weatherlink.com 1.10,2013-01-23 05:49:00,
2013-01-23 01:03:00,13.5,-3.0,30.23,WNW,290,8.0,14.0,48,0.00,,,0.00,0,weatherlink.com 1.10,2013-01-23 06:03:00,
2013-01-23 01:20:00,13.5,-3.0,30.23,West,275,3.0,10.0,48,0.00,,,0.00,0,weatherlink.com 1.10,2013-01-23 06:20:00,
2013-01-23 01:34:00,13.3,-3.0,30.24,West,272,5.0,12.0,49,0.00,,,0.00,0,weatherlink.com 1.10,2013-01-23 06:34:00,
2013-01-23 01:50:00,13.2,-2.0,30.24,WNW,289,3.0,12.0,50,0.00,,,0.00,0,weatherlink.com 1.10,2013-01-23 06:50:00,
2013-01-23 02:04:00,13.1,-2.0,30.24,WNW,303,6.0,12.0,50,0.00,,,0.00,0,weatherlink.com 1.10,2013-01-23 07:04:00,
2013-01-23 02:21:00,13.1,-2.0,30.25,WNW,301,4.0,10.0,51,0.00,,,0.00,0,weatherlink.com 1.10,2013-01-23 07:21:00,
2013-01-23 02:35:00,13.0,-2.0,30.25,West,279,5.0,10.0,52,0.00,,,0.00,0,weatherlink.com 1.10,2013-01-23 07:35:00,
2013-01-23 02:50:00,13.0,-1.0,30.25,WNW,300,4.0,9.0,53,0.00,,,0.00,0,weatherlink.com 1.10,2013-01-23 07:50:00,
2013-01-23 03:20:00,12.7,-1.0,30.25,WNW,292,4.0,9.0,54,0.00,,,0.00,0,weatherlink.com 1.10,2013-01-23 08:20:00,
2013-01-23 03:36:00,12.6,-1.0,30.25,WNW,284,0.0,9.0,54,0.00,,,0.00,0,weatherlink.com 1.10,2013-01-23 08:36:00,
2013-01-23 03:50:00,12.5,-1.0,30.25,WNW,297,4.0,8.0,55,0.00,,,0.00,0,weatherlink.com 1.10,2013-01-23 08:50:00,
2013-01-23 04:06:00,12.5,-1.0,30.25,West,273,5.0,10.0,55,0.00,,,0.00,0,weatherlink.com 1.10,2013-01-23 09:06:00,
2013-01-23 04:21:00,12.3,-1.0,30.24,WNW,292,5.0,8.0,55,0.00,,,0.00,0,weatherlink.com 1.10,2013-01-23 09:21:00,
2013-01-23 04:35:00,12.1,-1.0,30.24,WSW,255,1.0,7.0,56,0.00,,,0.00,0,weatherlink.com 1.10,2013-01-23 09:35:00,
2013-01-23 04:51:00,11.9,-1.0,30.25,West,281,5.0,7.0,57,0.00,,,0.00,0,weatherlink.com 1.10,2013-01-23 09:51:00,
2013-01-23 05:05:00,12.0,-1.0,30.25,WNW,295,1.0,10.0,57,0.00,,,0.00,0,weatherlink.com 1.10,2013-01-23 10:05:00,
2013-01-23 05:21:00,12.0,-1.0,30.25,WNW,293,3.0,9.0,57,0.00,,,0.00,0,weatherlink.com 1.10,2013-01-23 10:21:00,
2013-01-23 05:36:00,11.9,-1.0,30.26,West,275,2.0,6.0,57,0.00,,,0.00,0,weatherlink.com 1.10,2013-01-23 10:36:00,
2013-01-23 05:51:00,11.6,-1.0,30.26,West,278,2.0,6.0,58,0.00,,,0.00,0,weatherlink.com 1.10,2013-01-23 10:51:00,
2013-01-23 06:07:00,11.5,0.0,30.26,WNW,293,6.0,6.0,59,0.00,,,0.00,0,weatherlink.com 1.10,2013-01-23 11:07:00,
2013-01-23 06:21:00,11.3,-1.0,30.26,West,274,1.0,4.0,59,0.00,,,0.00,0,weatherlink.com 1.10,2013-01-23 11:21:00,
2013-01-23 06:37:00,10.9,0.0,30.26,West,274,0.0,2.0,61,0.00,,,0.00,0,weatherlink.com 1.10,2013-01-23 11:37:00,
2013-01-23 06:52:00,10.4,0.0,30.26,West,274,0.0,2.0,63,0.00,,,0.00,0,weatherlink.com 1.10,2013-01-23 11:52:00,
2013-01-23 07:06:00,10.0,0.0,30.26,West,274,0.0,0.0,64,0.00,,,0.00,0,weatherlink.com 1.10,2013-01-23 12:06:00,
2013-01-23 07:22:00,10.1,0.0,30.27,West,274,1.0,2.0,65,0.00,,,0.00,9,weatherlink.com 1.10,2013-01-23 12:22:00,
2013-01-23 07:38:00,10.4,0.0,30.27,West,274,0.0,3.0,64,0.00,,,0.00,16,weatherlink.com 1.10,2013-01-23 12:38:00,
2013-01-23 07:52:00,10.6,1.0,30.27,West,274,0.0,3.0,64,0.00,,,0.00,25,weatherlink.com 1.10,2013-01-23 12:52:00,
2013-01-23 08:07:00,11.2,1.0,30.27,West,274,0.0,4.0,64,0.00,,,0.00,32,weatherlink.com 1.10,2013-01-23 13:07:00,
2013-01-23 08:22:00,12.1,1.0,30.28,West,274,0.0,5.0,62,0.00,,,0.00,37,weatherlink.com 1.10,2013-01-23 13:22:00,
2013-01-23 08:39:00,13.0,2.0,30.28,WSW,254,5.0,9.0,61,0.00,,,0.00,42,weatherlink.com 1.10,2013-01-23 13:39:00,
2013-01-23 08:52:00,13.8,2.0,30.28,WNW,287,5.0,10.0,60,0.00,,,0.00,114,weatherlink.com 1.10,2013-01-23 13:52:00,
2013-01-23 09:08:00,14.6,2.0,30.28,WNW,292,6.0,12.0,57,0.00,,,0.00,63,weatherlink.com 1.10,2013-01-23 14:08:00,
2013-01-23 09:23:00,15.2,2.0,30.27,West,274,5.0,11.0,56,0.00,,,0.00,127,weatherlink.com 1.10,2013-01-23 14:23:00,
2013-01-23 09:37:00,16.0,2.0,30.28,West,259,7.0,12.0,54,0.00,,,0.00,396,weatherlink.com 1.10,2013-01-23 14:37:00,
2013-01-23 09:53:00,16.6,2.0,30.28,WNW,288,10.0,14.0,52,0.00,,,0.00,439,weatherlink.com 1.10,2013-01-23 14:53:00,
2013-01-23 10:08:00,16.7,1.0,30.28,SE,132,1.0,11.0,50,0.00,,,0.00,468,weatherlink.com 1.10,2013-01-23 15:08:00,
2013-01-23 10:22:00,17.0,1.0,30.29,West,281,1.0,15.0,50,0.00,,,0.00,492,weatherlink.com 1.10,2013-01-23 15:22:00,
2013-01-23 10:39:00,17.6,1.0,30.28,SE,139,1.0,15.0,49,0.00,,,0.00,517,weatherlink.com 1.10,2013-01-23 15:39:00,
2013-01-23 10:53:00,17.7,1.0,30.28,WNW,288,6.0,13.0,49,0.00,,,0.00,571,weatherlink.com 1.10,2013-01-23 15:53:00,
2013-01-23 11:09:00,18.7,2.0,30.27,West,279,6.0,9.0,49,0.00,,,0.00,563,weatherlink.com 1.10,2013-01-23 16:09:00,
2013-01-23 11:24:00,18.4,3.0,30.26,WNW,292,7.0,13.0,50,0.00,,,0.00,589,weatherlink.com 1.10,2013-01-23 16:24:00,
2013-01-23 11:38:00,18.9,3.0,30.25,WNW,298,9.0,13.0,49,0.00,,,0.00,156,weatherlink.com 1.10,2013-01-23 16:38:00,
2013-01-23 11:55:00,18.5,1.0,30.24,West,277,7.0,19.0,47,0.00,,,0.00,543,weatherlink.com 1.10,2013-01-23 16:55:00,
2013-01-23 12:09:00,18.6,1.0,30.23,West,273,13.0,15.0,47,0.00,,,0.00,260,weatherlink.com 1.10,2013-01-23 17:09:00,
2013-01-23 12:24:00,19.1,2.0,30.22,WNW,298,10.0,15.0,48,0.00,,,0.00,387,weatherlink.com 1.10,2013-01-23 17:24:00,
2013-01-23 12:40:00,19.5,2.0,30.21,WNW,286,10.0,14.0,46,0.00,,,0.00,248,weatherlink.com 1.10,2013-01-23 17:40:00,
2013-01-23 13:09:00,19.5,2.0,30.20,WNW,290,7.0,16.0,47,0.00,,,0.00,427,weatherlink.com 1.10,2013-01-23 18:09:00,
2013-01-23 13:25:00,20.4,4.0,30.19,SSE,153,5.0,15.0,49,0.00,,,0.00,700,weatherlink.com 1.10,2013-01-23 18:25:00,
2013-01-23 13:39:00,19.9,2.0,30.19,WSW,256,3.0,17.0,46,0.00,,,0.00,454,weatherlink.com 1.10,2013-01-23 18:39:00,
2013-01-23 13:54:00,19.7,4.0,30.20,WNW,292,8.0,17.0,51,0.00,,,0.00,93,weatherlink.com 1.10,2013-01-23 18:54:00,
2013-01-23 14:10:00,19.0,2.0,30.19,WNW,303,4.0,14.0,48,0.00,,,0.00,178,weatherlink.com 1.10,2013-01-23 19:10:00,
2013-01-23 14:24:00,19.0,3.0,30.19,NW,325,8.0,13.0,49,0.00,,,0.00,113,weatherlink.com 1.10,2013-01-23 19:24:00,
2013-01-23 14:41:00,19.1,3.0,30.19,WNW,286,3.0,10.0,49,0.00,,,0.00,176,weatherlink.com 1.10,2013-01-23 19:41:00,
2013-01-23 14:55:00,20.6,3.0,30.19,WNW,297,6.0,15.0,46,0.00,,,0.00,176,weatherlink.com 1.10,2013-01-23 19:55:00,
2013-01-23 15:10:00,19.4,3.0,30.19,WNW,297,5.0,11.0,49,0.00,,,0.00,102,weatherlink.com 1.10,2013-01-23 20:10:00,
2013-01-23 15:25:00,19.7,3.0,30.19,WNW,294,7.0,14.0,49,0.00,,,0.00,93,weatherlink.com 1.10,2013-01-23 20:25:00,
2013-01-23 15:41:00,19.7,5.0,30.20,West,281,5.0,12.0,52,0.00,,,0.00,81,weatherlink.com 1.10,2013-01-23 20:41:00,
2013-01-23 15:55:00,19.3,4.0,30.19,NNW,346,1.0,11.0,52,0.00,,,0.00,62,weatherlink.com 1.10,2013-01-23 20:55:00,
2013-01-23 16:11:00,19.3,4.0,30.19,WNW,299,0.0,11.0,51,0.00,,,0.00,63,weatherlink.com 1.10,2013-01-23 21:11:00,
2013-01-23 16:26:00,19.0,4.0,30.20,WNW,289,10.0,13.0,52,0.00,,,0.00,23,weatherlink.com 1.10,2013-01-23 21:26:00,
2013-01-23 16:40:00,18.6,5.0,30.20,NW,315,8.0,11.0,55,0.00,,,0.00,21,weatherlink.com 1.10,2013-01-23 21:40:00,
2013-01-23 16:57:00,18.1,5.0,30.20,WNW,297,3.0,8.0,56,0.00,,,0.00,7,weatherlink.com 1.10,2013-01-23 21:57:00,
2013-01-23 17:11:00,17.9,5.0,30.20,WNW,289,3.0,7.0,56,0.00,,,0.00,0,weatherlink.com 1.10,2013-01-23 22:11:00,
2013-01-23 17:26:00,17.8,4.0,30.21,NE,42,3.0,8.0,54,0.00,,,0.00,0,weatherlink.com 1.10,2013-01-23 22:26:00,
2013-01-23 17:42:00,17.7,4.0,30.21,WNW,292,4.0,9.0,54,0.00,,,0.00,0,weatherlink.com 1.10,2013-01-23 22:42:00,
2013-01-23 17:56:00,17.5,3.0,30.22,WNW,287,4.0,7.0,54,0.00,,,0.00,0,weatherlink.com 1.10,2013-01-23 22:56:00,
2013-01-23 18:12:00,17.2,3.0,30.22,WNW,286,3.0,7.0,55,0.00,,,0.00,0,weatherlink.com 1.10,2013-01-23 23:12:00,
2013-01-23 18:27:00,16.8,3.0,30.22,WNW,286,1.0,2.0,56,0.00,,,0.00,0,weatherlink.com 1.10,2013-01-23 23:27:00,
2013-01-23 18:41:00,16.5,3.0,30.22,West,263,2.0,5.0,56,0.00,,,0.00,0,weatherlink.com 1.10,2013-01-23 23:41:00,
2013-01-23 18:57:00,16.2,3.0,30.22,West,263,0.0,4.0,57,0.00,,,0.00,0,weatherlink.com 1.10,2013-01-23 23:57:00,
2013-01-23 19:12:00,15.7,4.0,30.22,West,263,0.0,1.0,59,0.00,,,0.00,0,weatherlink.com 1.10,2013-01-24 00:12:00,
2013-01-23 19:27:00,14.8,3.0,30.21,West,263,0.0,0.0,61,0.00,,,0.00,0,weatherlink.com 1.10,2013-01-24 00:27:00,
2013-01-23 19:42:00,13.5,3.0,30.21,West,263,0.0,0.0,64,0.00,,,0.00,0,weatherlink.com 1.10,2013-01-24 00:42:00,
2013-01-23 19:57:00,12.6,4.0,30.21,West,263,0.0,0.0,68,0.00,,,0.00,0,weatherlink.com 1.10,2013-01-24 00:57:00,
2013-01-23 20:13:00,11.7,4.0,30.21,West,263,0.0,0.0,70,0.00,,,0.00,0,weatherlink.com 1.10,2013-01-24 01:13:00,
2013-01-23 20:29:00,11.0,3.0,30.21,West,263,0.0,0.0,71,0.00,,,0.00,0,weatherlink.com 1.10,2013-01-24 01:29:00,
2013-01-23 20:43:00,10.4,4.0,30.21,West,263,0.0,0.0,74,0.00,,,0.00,0,weatherlink.com 1.10,2013-01-24 01:43:00,
2013-01-23 20:57:00,9.9,4.0,30.21,West,263,0.0,0.0,75,0.00,,,0.00,0,weatherlink.com 1.10,2013-01-24 01:57:00,
2013-01-23 21:14:00,9.4,4.0,30.20,West,263,0.0,0.0,77,0.00,,,0.00,0,weatherlink.com 1.10,2013-01-24 02:14:00,
2013-01-23 21:28:00,9.2,4.0,30.20,West,263,0.0,0.0,78,0.00,,,0.00,0,weatherlink.com 1.10,2013-01-24 02:28:00,
2013-01-23 21:44:00,9.0,4.0,30.21,West,263,0.0,0.0,80,0.00,,,0.00,0,weatherlink.com 1.10,2013-01-24 02:44:00,
2013-01-23 21:59:00,8.8,4.0,30.21,West,263,0.0,0.0,79,0.00,,,0.00,0,weatherlink.com 1.10,2013-01-24 02:59:00,
2013-01-23 22:14:00,8.2,3.0,30.21,West,263,0.0,0.0,79,0.00,,,0.00,0,weatherlink.com 1.10,2013-01-24 03:14:00,
2013-01-23 22:28:00,7.9,3.0,30.21,West,263,0.0,0.0,81,0.00,,,0.00,0,weatherlink.com 1.10,2013-01-24 03:28:00,
2013-01-23 22:44:00,7.7,3.0,30.21,West,263,0.0,0.0,82,0.00,,,0.00,0,weatherlink.com 1.10,2013-01-24 03:44:00,
2013-01-23 22:59:00,7.5,3.0,30.21,West,263,0.0,0.0,83,0.00,,,0.00,0,weatherlink.com 1.10,2013-01-24 03:59:00,
2013-01-23 23:13:00,7.6,4.0,30.21,West,263,0.0,0.0,84,0.00,,,0.00,0,weatherlink.com 1.10,2013-01-24 04:13:00,
2013-01-23 23:29:00,7.7,4.0,30.21,West,263,0.0,0.0,84,0.00,,,0.00,0,weatherlink.com 1.10,2013-01-24 04:29:00,
2013-01-23 23:44:00,7.8,4.0,30.20,West,263,0.0,0.0,85,0.00,,,0.00,0,weatherlink.com 1.10,2013-01-24 04:44:00,
2013-01-23 23:59:00,7.9,4.0,30.19,West,263,0.0,0.0,85,0.00,,,0.00,0,weatherlink.com 1.10,2013-01-24 04:59:00,